sensor_id;sensor_type;location;lat;lon;timestamp;P1;durP1;ratioP1;P2;durP2;ratioP2
5117;SDS011;2578;51.622;7.046;2022-12-07T00:01:16;15.13;;;9.97;;
5117;SDS011;2578;51.622;7.046;2022-12-07T00:03:46;9.13;;;8.23;;
5117;SDS011;2578;51.622;7.046;2022-12-07T00:06:13;9.80;;;7.27;;
5117;SDS011;2578;51.622;7.046;2022-12-07T00:08:40;10.53;;;9.43;;
5117;SDS011;2578;51.622;7.046;2022-12-07T00:11:06;11.20;;;7.57;;
5117;SDS011;2578;51.622;7.046;2022-12-07T00:13:40;6.77;;;6.10;;
5117;SDS011;2578;51.622;7.046;2022-12-07T00:16:07;40.23;;;12.90;;
5117;SDS011;2578;51.622;7.046;2022-12-07T00:18:35;6.30;;;5.70;;
5117;SDS011;2578;51.622;7.046;2022-12-07T00:21:11;23.17;;;12.60;;
5117;SDS011;2578;51.622;7.046;2022-12-07T00:23:39;12.90;;;9.00;;
5117;SDS011;2578;51.622;7.046;2022-12-07T00:26:07;8.33;;;6.93;;
5117;SDS011;2578;51.622;7.046;2022-12-07T00:28:57;13.40;;;9.97;;
5117;SDS011;2578;51.622;7.046;2022-12-07T00:31:28;26.27;;;15.73;;
5117;SDS011;2578;51.622;7.046;2022-12-07T00:33:56;17.90;;;11.97;;
5117;SDS011;2578;51.622;7.046;2022-12-07T00:36:23;9.10;;;8.20;;
5117;SDS011;2578;51.622;7.046;2022-12-07T00:38:50;15.70;;;10.43;;
5117;SDS011;2578;51.622;7.046;2022-12-07T00:41:19;11.20;;;8.70;;
5117;SDS011;2578;51.622;7.046;2022-12-07T00:43:47;26.80;;;13.90;;
5117;SDS011;2578;51.622;7.046;2022-12-07T00:46:13;22.77;;;13.43;;
5117;SDS011;2578;51.622;7.046;2022-12-07T00:48:40;20.33;;;12.87;;
5117;SDS011;2578;51.622;7.046;2022-12-07T00:51:06;9.80;;;7.90;;
5117;SDS011;2578;51.622;7.046;2022-12-07T00:53:35;6.40;;;5.90;;
5117;SDS011;2578;51.622;7.046;2022-12-07T00:56:05;19.40;;;13.40;;
5117;SDS011;2578;51.622;7.046;2022-12-07T00:58:37;9.47;;;8.57;;
5117;SDS011;2578;51.622;7.046;2022-12-07T01:01:03;8.07;;;7.30;;
5117;SDS011;2578;51.622;7.046;2022-12-07T01:03:30;7.87;;;6.73;;
5117;SDS011;2578;51.622;7.046;2022-12-07T01:05:56;6.30;;;5.77;;
5117;SDS011;2578;51.622;7.046;2022-12-07T01:08:22;7.40;;;6.73;;
5117;SDS011;2578;51.622;7.046;2022-12-07T01:10:56;5.90;;;5.40;;
5117;SDS011;2578;51.622;7.046;2022-12-07T01:13:26;16.90;;;13.57;;
5117;SDS011;2578;51.622;7.046;2022-12-07T01:15:55;10.73;;;7.70;;
5117;SDS011;2578;51.622;7.046;2022-12-07T01:18:24;9.90;;;8.87;;
5117;SDS011;2578;51.622;7.046;2022-12-07T01:20:58;18.40;;;13.60;;
5117;SDS011;2578;51.622;7.046;2022-12-07T01:23:27;13.40;;;10.63;;
5117;SDS011;2578;51.622;7.046;2022-12-07T01:25:57;14.87;;;11.27;;
5117;SDS011;2578;51.622;7.046;2022-12-07T01:28:23;10.10;;;8.97;;
5117;SDS011;2578;51.622;7.046;2022-12-07T01:30:59;13.63;;;9.30;;
5117;SDS011;2578;51.622;7.046;2022-12-07T01:33:28;14.50;;;10.00;;
5117;SDS011;2578;51.622;7.046;2022-12-07T01:35:59;27.83;;;17.30;;
5117;SDS011;2578;51.622;7.046;2022-12-07T01:38:26;24.47;;;13.63;;
5117;SDS011;2578;51.622;7.046;2022-12-07T01:40:56;16.40;;;10.37;;
5117;SDS011;2578;51.622;7.046;2022-12-07T01:43:22;10.10;;;8.97;;
5117;SDS011;2578;51.622;7.046;2022-12-07T01:45:50;7.00;;;5.97;;
5117;SDS011;2578;51.622;7.046;2022-12-07T01:48:16;19.97;;;10.40;;
5117;SDS011;2578;51.622;7.046;2022-12-07T01:50:46;33.53;;;14.30;;
5117;SDS011;2578;51.622;7.046;2022-12-07T01:53:14;34.23;;;15.43;;
5117;SDS011;2578;51.622;7.046;2022-12-07T01:55:42;10.73;;;7.73;;
5117;SDS011;2578;51.622;7.046;2022-12-07T01:58:11;20.27;;;9.90;;
5117;SDS011;2578;51.622;7.046;2022-12-07T02:00:38;9.40;;;8.47;;
5117;SDS011;2578;51.622;7.046;2022-12-07T02:03:07;12.03;;;8.10;;
5117;SDS011;2578;51.622;7.046;2022-12-07T02:05:41;12.10;;;8.27;;
5117;SDS011;2578;51.622;7.046;2022-12-07T02:08:09;9.50;;;8.50;;
5117;SDS011;2578;51.622;7.046;2022-12-07T02:10:36;14.00;;;10.27;;
5117;SDS011;2578;51.622;7.046;2022-12-07T02:13:02;18.07;;;9.13;;
5117;SDS011;2578;51.622;7.046;2022-12-07T02:15:49;27.23;;;12.47;;
5117;SDS011;2578;51.622;7.046;2022-12-07T02:29:58;7.83;;;7.13;;
5117;SDS011;2578;51.622;7.046;2022-12-07T02:32:31;7.43;;;6.30;;
5117;SDS011;2578;51.622;7.046;2022-12-07T02:35:07;7.17;;;6.47;;
5117;SDS011;2578;51.622;7.046;2022-12-07T02:43:33;7.40;;;6.80;;
5117;SDS011;2578;51.622;7.046;2022-12-07T02:46:07;6.00;;;5.50;;
5117;SDS011;2578;51.622;7.046;2022-12-07T02:48:36;7.00;;;5.90;;
5117;SDS011;2578;51.622;7.046;2022-12-07T02:51:03;6.40;;;5.80;;
5117;SDS011;2578;51.622;7.046;2022-12-07T02:53:33;11.23;;;6.90;;
5117;SDS011;2578;51.622;7.046;2022-12-07T03:07:33;7.33;;;6.63;;
5117;SDS011;2578;51.622;7.046;2022-12-07T03:13:00;7.57;;;6.90;;
5117;SDS011;2578;51.622;7.046;2022-12-07T03:18:21;19.97;;;13.43;;
5117;SDS011;2578;51.622;7.046;2022-12-07T03:20:50;15.57;;;10.33;;
5117;SDS011;2578;51.622;7.046;2022-12-07T03:23:18;10.40;;;9.30;;
5117;SDS011;2578;51.622;7.046;2022-12-07T03:25:47;13.80;;;10.07;;
5117;SDS011;2578;51.622;7.046;2022-12-07T03:28:18;14.10;;;10.00;;
5117;SDS011;2578;51.622;7.046;2022-12-07T03:31:01;13.87;;;9.80;;
5117;SDS011;2578;51.622;7.046;2022-12-07T03:33:31;18.13;;;10.43;;
5117;SDS011;2578;51.622;7.046;2022-12-07T03:38:55;15.60;;;11.17;;
5117;SDS011;2578;51.622;7.046;2022-12-07T03:41:29;21.17;;;11.83;;
5117;SDS011;2578;51.622;7.046;2022-12-07T03:43:58;8.30;;;7.43;;
5117;SDS011;2578;51.622;7.046;2022-12-07T03:46:34;14.80;;;12.33;;
5117;SDS011;2578;51.622;7.046;2022-12-07T03:54:18;13.47;;;12.13;;
5117;SDS011;2578;51.622;7.046;2022-12-07T03:56:47;18.47;;;13.63;;
5117;SDS011;2578;51.622;7.046;2022-12-07T03:59:14;20.93;;;13.40;;
5117;SDS011;2578;51.622;7.046;2022-12-07T04:01:43;14.37;;;10.17;;
5117;SDS011;2578;51.622;7.046;2022-12-07T04:04:09;13.83;;;10.83;;
5117;SDS011;2578;51.622;7.046;2022-12-07T04:06:35;28.07;;;12.50;;
5117;SDS011;2578;51.622;7.046;2022-12-07T04:09:00;9.83;;;8.77;;
5117;SDS011;2578;51.622;7.046;2022-12-07T04:11:26;12.53;;;11.33;;
5117;SDS011;2578;51.622;7.046;2022-12-07T04:13:51;9.77;;;9.00;;
5117;SDS011;2578;51.622;7.046;2022-12-07T04:16:35;9.50;;;8.77;;
5117;SDS011;2578;51.622;7.046;2022-12-07T04:19:01;9.53;;;8.73;;
5117;SDS011;2578;51.622;7.046;2022-12-07T04:21:27;21.73;;;12.10;;
5117;SDS011;2578;51.622;7.046;2022-12-07T04:23:52;9.37;;;8.57;;
5117;SDS011;2578;51.622;7.046;2022-12-07T04:26:18;11.80;;;10.77;;
5117;SDS011;2578;51.622;7.046;2022-12-07T04:28:44;17.77;;;15.03;;
5117;SDS011;2578;51.622;7.046;2022-12-07T04:31:10;10.63;;;9.53;;
5117;SDS011;2578;51.622;7.046;2022-12-07T04:33:36;8.20;;;7.50;;
5117;SDS011;2578;51.622;7.046;2022-12-07T04:36:01;20.23;;;11.20;;
5117;SDS011;2578;51.622;7.046;2022-12-07T04:38:27;23.03;;;10.43;;
5117;SDS011;2578;51.622;7.046;2022-12-07T04:40:53;11.50;;;9.93;;
5117;SDS011;2578;51.622;7.046;2022-12-07T04:43:18;12.57;;;11.10;;
5117;SDS011;2578;51.622;7.046;2022-12-07T04:45:47;12.03;;;10.20;;
5117;SDS011;2578;51.622;7.046;2022-12-07T04:48:13;9.90;;;9.10;;
5117;SDS011;2578;51.622;7.046;2022-12-07T04:50:39;9.37;;;8.27;;
5117;SDS011;2578;51.622;7.046;2022-12-07T04:53:04;9.17;;;8.50;;
5117;SDS011;2578;51.622;7.046;2022-12-07T04:55:30;9.47;;;8.70;;
5117;SDS011;2578;51.622;7.046;2022-12-07T04:57:56;7.60;;;7.10;;
5117;SDS011;2578;51.622;7.046;2022-12-07T05:00:21;25.50;;;12.10;;
5117;SDS011;2578;51.622;7.046;2022-12-07T05:02:47;9.13;;;8.43;;
5117;SDS011;2578;51.622;7.046;2022-12-07T05:05:13;21.73;;;10.87;;
5117;SDS011;2578;51.622;7.046;2022-12-07T05:07:38;8.50;;;7.90;;
5117;SDS011;2578;51.622;7.046;2022-12-07T05:10:04;17.33;;;13.90;;
5117;SDS011;2578;51.622;7.046;2022-12-07T05:12:30;8.97;;;8.27;;
5117;SDS011;2578;51.622;7.046;2022-12-07T05:14:56;8.90;;;8.30;;
5117;SDS011;2578;51.622;7.046;2022-12-07T05:17:21;11.67;;;10.53;;
5117;SDS011;2578;51.622;7.046;2022-12-07T05:19:47;12.67;;;11.37;;
5117;SDS011;2578;51.622;7.046;2022-12-07T05:22:12;9.70;;;8.90;;
5117;SDS011;2578;51.622;7.046;2022-12-07T05:24:39;12.20;;;10.37;;
5117;SDS011;2578;51.622;7.046;2022-12-07T05:27:04;12.83;;;9.70;;
5117;SDS011;2578;51.622;7.046;2022-12-07T05:29:30;17.50;;;14.10;;
5117;SDS011;2578;51.622;7.046;2022-12-07T05:31:56;11.73;;;10.87;;
5117;SDS011;2578;51.622;7.046;2022-12-07T05:34:21;10.00;;;9.10;;
5117;SDS011;2578;51.622;7.046;2022-12-07T05:36:47;9.13;;;8.53;;
5117;SDS011;2578;51.622;7.046;2022-12-07T05:39:12;12.47;;;11.13;;
5117;SDS011;2578;51.622;7.046;2022-12-07T05:41:38;9.23;;;8.53;;
5117;SDS011;2578;51.622;7.046;2022-12-07T05:44:22;20.70;;;13.63;;
5117;SDS011;2578;51.622;7.046;2022-12-07T05:46:48;10.63;;;9.73;;
5117;SDS011;2578;51.622;7.046;2022-12-07T05:49:13;10.30;;;9.50;;
5117;SDS011;2578;51.622;7.046;2022-12-07T05:51:39;10.53;;;9.50;;
5117;SDS011;2578;51.622;7.046;2022-12-07T05:54:04;10.83;;;9.70;;
5117;SDS011;2578;51.622;7.046;2022-12-07T05:56:30;9.70;;;9.00;;
5117;SDS011;2578;51.622;7.046;2022-12-07T05:58:56;15.07;;;9.30;;
5117;SDS011;2578;51.622;7.046;2022-12-07T06:01:40;13.40;;;11.80;;
5117;SDS011;2578;51.622;7.046;2022-12-07T06:04:06;10.57;;;9.80;;
5117;SDS011;2578;51.622;7.046;2022-12-07T06:06:31;9.87;;;9.17;;
5117;SDS011;2578;51.622;7.046;2022-12-07T06:08:57;8.77;;;8.07;;
5117;SDS011;2578;51.622;7.046;2022-12-07T06:11:22;11.23;;;10.23;;
5117;SDS011;2578;51.622;7.046;2022-12-07T06:14:06;7.70;;;7.13;;
5117;SDS011;2578;51.622;7.046;2022-12-07T06:16:32;6.70;;;6.20;;
5117;SDS011;2578;51.622;7.046;2022-12-07T06:18:58;8.90;;;8.30;;
5117;SDS011;2578;51.622;7.046;2022-12-07T06:21:23;7.90;;;7.40;;
5117;SDS011;2578;51.622;7.046;2022-12-07T06:23:50;8.90;;;8.20;;
5117;SDS011;2578;51.622;7.046;2022-12-07T06:26:16;12.10;;;10.90;;
5117;SDS011;2578;51.622;7.046;2022-12-07T06:28:42;16.27;;;11.53;;
5117;SDS011;2578;51.622;7.046;2022-12-07T06:31:07;9.63;;;8.73;;
5117;SDS011;2578;51.622;7.046;2022-12-07T06:33:33;9.83;;;9.00;;
5117;SDS011;2578;51.622;7.046;2022-12-07T06:35:59;9.53;;;8.80;;
5117;SDS011;2578;51.622;7.046;2022-12-07T06:38:24;10.57;;;9.70;;
5117;SDS011;2578;51.622;7.046;2022-12-07T06:40:50;11.53;;;10.37;;
5117;SDS011;2578;51.622;7.046;2022-12-07T06:43:16;11.77;;;9.50;;
5117;SDS011;2578;51.622;7.046;2022-12-07T06:45:41;10.60;;;9.80;;
5117;SDS011;2578;51.622;7.046;2022-12-07T06:48:07;9.37;;;8.77;;
5117;SDS011;2578;51.622;7.046;2022-12-07T06:50:32;9.20;;;8.60;;
5117;SDS011;2578;51.622;7.046;2022-12-07T06:52:58;9.73;;;9.03;;
5117;SDS011;2578;51.622;7.046;2022-12-07T06:55:24;11.90;;;11.00;;
5117;SDS011;2578;51.622;7.046;2022-12-07T06:57:49;10.23;;;9.43;;
5117;SDS011;2578;51.622;7.046;2022-12-07T07:00:15;11.10;;;10.40;;
5117;SDS011;2578;51.622;7.046;2022-12-07T07:02:41;19.33;;;14.37;;
5117;SDS011;2578;51.622;7.046;2022-12-07T07:05:06;14.73;;;13.03;;
5117;SDS011;2578;51.622;7.046;2022-12-07T07:07:32;12.90;;;11.67;;
5117;SDS011;2578;51.622;7.046;2022-12-07T07:09:58;13.20;;;12.00;;
5117;SDS011;2578;51.622;7.046;2022-12-07T07:12:23;14.20;;;12.57;;
5117;SDS011;2578;51.622;7.046;2022-12-07T07:14:49;12.80;;;11.80;;
5117;SDS011;2578;51.622;7.046;2022-12-07T07:17:14;12.17;;;11.00;;
5117;SDS011;2578;51.622;7.046;2022-12-07T07:19:40;11.47;;;10.57;;
5117;SDS011;2578;51.622;7.046;2022-12-07T07:22:06;11.47;;;10.77;;
5117;SDS011;2578;51.622;7.046;2022-12-07T07:24:31;11.10;;;10.40;;
5117;SDS011;2578;51.622;7.046;2022-12-07T07:26:57;11.00;;;10.30;;
5117;SDS011;2578;51.622;7.046;2022-12-07T07:29:22;11.53;;;10.60;;
5117;SDS011;2578;51.622;7.046;2022-12-07T07:31:48;11.83;;;9.60;;
5117;SDS011;2578;51.622;7.046;2022-12-07T07:34:13;10.00;;;9.30;;
5117;SDS011;2578;51.622;7.046;2022-12-07T07:36:39;10.33;;;9.53;;
5117;SDS011;2578;51.622;7.046;2022-12-07T07:39:05;10.73;;;9.93;;
5117;SDS011;2578;51.622;7.046;2022-12-07T07:41:31;11.83;;;10.83;;
5117;SDS011;2578;51.622;7.046;2022-12-07T07:43:56;17.43;;;15.00;;
5117;SDS011;2578;51.622;7.046;2022-12-07T07:46:22;12.17;;;11.10;;
5117;SDS011;2578;51.622;7.046;2022-12-07T07:48:48;24.73;;;15.33;;
5117;SDS011;2578;51.622;7.046;2022-12-07T07:51:13;11.13;;;10.13;;
5117;SDS011;2578;51.622;7.046;2022-12-07T07:53:39;11.63;;;10.53;;
5117;SDS011;2578;51.622;7.046;2022-12-07T07:56:05;13.10;;;11.80;;
5117;SDS011;2578;51.622;7.046;2022-12-07T07:58:30;11.83;;;10.83;;
5117;SDS011;2578;51.622;7.046;2022-12-07T08:00:56;11.27;;;10.37;;
5117;SDS011;2578;51.622;7.046;2022-12-07T08:03:21;13.40;;;12.00;;
5117;SDS011;2578;51.622;7.046;2022-12-07T08:05:47;24.63;;;17.43;;
5117;SDS011;2578;51.622;7.046;2022-12-07T08:08:13;10.57;;;9.57;;
5117;SDS011;2578;51.622;7.046;2022-12-07T08:10:38;15.93;;;9.73;;
5117;SDS011;2578;51.622;7.046;2022-12-07T08:13:04;12.23;;;10.93;;
5117;SDS011;2578;51.622;7.046;2022-12-07T08:15:36;11.13;;;10.13;;
5117;SDS011;2578;51.622;7.046;2022-12-07T08:18:03;14.07;;;11.60;;
5117;SDS011;2578;51.622;7.046;2022-12-07T08:20:30;16.40;;;10.70;;
5117;SDS011;2578;51.622;7.046;2022-12-07T08:22:56;12.00;;;9.33;;
5117;SDS011;2578;51.622;7.046;2022-12-07T08:25:22;21.27;;;14.20;;
5117;SDS011;2578;51.622;7.046;2022-12-07T08:27:48;14.10;;;12.60;;
5117;SDS011;2578;51.622;7.046;2022-12-07T08:30:13;13.63;;;12.30;;
5117;SDS011;2578;51.622;7.046;2022-12-07T08:32:39;15.13;;;13.43;;
5117;SDS011;2578;51.622;7.046;2022-12-07T08:35:05;13.17;;;11.30;;
5117;SDS011;2578;51.622;7.046;2022-12-07T08:37:31;16.27;;;14.57;;
5117;SDS011;2578;51.622;7.046;2022-12-07T08:39:57;23.13;;;14.40;;
5117;SDS011;2578;51.622;7.046;2022-12-07T08:42:23;19.77;;;16.10;;
5117;SDS011;2578;51.622;7.046;2022-12-07T08:44:52;10.67;;;9.97;;
5117;SDS011;2578;51.622;7.046;2022-12-07T08:47:18;15.43;;;13.80;;
5117;SDS011;2578;51.622;7.046;2022-12-07T08:49:45;18.50;;;15.93;;
5117;SDS011;2578;51.622;7.046;2022-12-07T08:52:12;16.27;;;14.63;;
5117;SDS011;2578;51.622;7.046;2022-12-07T08:54:38;25.47;;;15.40;;
5117;SDS011;2578;51.622;7.046;2022-12-07T08:57:05;13.53;;;12.43;;
5117;SDS011;2578;51.622;7.046;2022-12-07T08:59:32;16.80;;;14.77;;
5117;SDS011;2578;51.622;7.046;2022-12-07T09:01:59;21.50;;;17.30;;
5117;SDS011;2578;51.622;7.046;2022-12-07T09:04:25;14.17;;;12.87;;
5117;SDS011;2578;51.622;7.046;2022-12-07T09:06:51;14.67;;;13.47;;
5117;SDS011;2578;51.622;7.046;2022-12-07T09:09:17;24.20;;;16.80;;
5117;SDS011;2578;51.622;7.046;2022-12-07T09:11:43;22.10;;;18.33;;
5117;SDS011;2578;51.622;7.046;2022-12-07T09:14:10;17.40;;;15.73;;
5117;SDS011;2578;51.622;7.046;2022-12-07T09:16:37;33.10;;;17.70;;
5117;SDS011;2578;51.622;7.046;2022-12-07T09:19:03;16.17;;;14.50;;
5117;SDS011;2578;51.622;7.046;2022-12-07T09:21:29;13.07;;;12.13;;
5117;SDS011;2578;51.622;7.046;2022-12-07T09:23:55;16.30;;;14.90;;
5117;SDS011;2578;51.622;7.046;2022-12-07T09:26:21;21.67;;;16.33;;
5117;SDS011;2578;51.622;7.046;2022-12-07T09:28:46;15.77;;;14.17;;
5117;SDS011;2578;51.622;7.046;2022-12-07T09:31:12;15.37;;;13.93;;
5117;SDS011;2578;51.622;7.046;2022-12-07T09:33:37;14.77;;;13.40;;
5117;SDS011;2578;51.622;7.046;2022-12-07T09:36:03;15.10;;;14.00;;
5117;SDS011;2578;51.622;7.046;2022-12-07T09:38:30;15.60;;;14.37;;
5117;SDS011;2578;51.622;7.046;2022-12-07T09:40:56;12.97;;;12.07;;
5117;SDS011;2578;51.622;7.046;2022-12-07T09:43:22;14.40;;;13.40;;
5117;SDS011;2578;51.622;7.046;2022-12-07T09:45:50;11.60;;;10.90;;
5117;SDS011;2578;51.622;7.046;2022-12-07T09:48:23;10.73;;;9.83;;
5117;SDS011;2578;51.622;7.046;2022-12-07T09:50:55;10.97;;;10.17;;
5117;SDS011;2578;51.622;7.046;2022-12-07T09:53:30;12.70;;;11.50;;
5117;SDS011;2578;51.622;7.046;2022-12-07T09:55:58;12.50;;;11.70;;
5117;SDS011;2578;51.622;7.046;2022-12-07T09:58:25;16.80;;;15.50;;
5117;SDS011;2578;51.622;7.046;2022-12-07T10:00:53;20.17;;;18.53;;
5117;SDS011;2578;51.622;7.046;2022-12-07T10:03:23;21.53;;;19.70;;
5117;SDS011;2578;51.622;7.046;2022-12-07T10:05:50;21.33;;;19.73;;
5117;SDS011;2578;51.622;7.046;2022-12-07T10:08:17;19.60;;;18.40;;
5117;SDS011;2578;51.622;7.046;2022-12-07T10:10:44;22.03;;;20.60;;
5117;SDS011;2578;51.622;7.046;2022-12-07T10:13:12;22.60;;;21.10;;
5117;SDS011;2578;51.622;7.046;2022-12-07T10:15:49;25.03;;;22.87;;
5117;SDS011;2578;51.622;7.046;2022-12-07T10:18:36;23.40;;;21.90;;
5117;SDS011;2578;51.622;7.046;2022-12-07T10:21:05;23.67;;;22.17;;
5117;SDS011;2578;51.622;7.046;2022-12-07T10:23:32;20.30;;;19.00;;
5117;SDS011;2578;51.622;7.046;2022-12-07T10:25:59;19.23;;;18.10;;
5117;SDS011;2578;51.622;7.046;2022-12-07T10:28:56;18.30;;;17.07;;
5117;SDS011;2578;51.622;7.046;2022-12-07T10:31:25;17.67;;;16.10;;
5117;SDS011;2578;51.622;7.046;2022-12-07T10:33:58;18.67;;;14.23;;
5117;SDS011;2578;51.622;7.046;2022-12-07T10:38:53;10.30;;;9.70;;
5117;SDS011;2578;51.622;7.046;2022-12-07T10:41:28;13.37;;;10.77;;
5117;SDS011;2578;51.622;7.046;2022-12-07T10:43:55;9.63;;;8.60;;
5117;SDS011;2578;51.622;7.046;2022-12-07T10:46:26;9.93;;;8.40;;
5117;SDS011;2578;51.622;7.046;2022-12-07T10:59:56;8.27;;;7.57;;
5117;SDS011;2578;51.622;7.046;2022-12-07T11:05:49;8.47;;;7.80;;
5117;SDS011;2578;51.622;7.046;2022-12-07T11:13:52;8.67;;;7.97;;
5117;SDS011;2578;51.622;7.046;2022-12-07T11:16:34;8.70;;;7.87;;
5117;SDS011;2578;51.622;7.046;2022-12-07T11:21:51;8.70;;;7.90;;
5117;SDS011;2578;51.622;7.046;2022-12-07T11:25:13;7.93;;;7.30;;
5117;SDS011;2578;51.622;7.046;2022-12-07T11:41:06;6.70;;;5.93;;
5117;SDS011;2578;51.622;7.046;2022-12-07T11:43:40;5.53;;;5.03;;
5117;SDS011;2578;51.622;7.046;2022-12-07T11:46:16;5.53;;;5.13;;
5117;SDS011;2578;51.622;7.046;2022-12-07T11:51:26;8.53;;;6.37;;
5117;SDS011;2578;51.622;7.046;2022-12-07T11:54:01;6.00;;;4.63;;
5117;SDS011;2578;51.622;7.046;2022-12-07T11:56:36;5.07;;;4.57;;
5117;SDS011;2578;51.622;7.046;2022-12-07T11:59:07;11.17;;;5.73;;
5117;SDS011;2578;51.622;7.046;2022-12-07T12:04:41;6.00;;;5.50;;
5117;SDS011;2578;51.622;7.046;2022-12-07T12:07:24;5.87;;;5.37;;
5117;SDS011;2578;51.622;7.046;2022-12-07T12:25:37;6.97;;;6.40;;
5117;SDS011;2578;51.622;7.046;2022-12-07T12:33:46;8.30;;;7.70;;
5117;SDS011;2578;51.622;7.046;2022-12-07T12:36:21;10.70;;;9.97;;
5117;SDS011;2578;51.622;7.046;2022-12-07T12:39:13;8.90;;;8.10;;
5117;SDS011;2578;51.622;7.046;2022-12-07T12:51:45;5.83;;;5.43;;
5117;SDS011;2578;51.622;7.046;2022-12-07T12:54:18;5.77;;;5.27;;
5117;SDS011;2578;51.622;7.046;2022-12-07T13:01:56;6.17;;;4.80;;
5117;SDS011;2578;51.622;7.046;2022-12-07T13:05:14;5.57;;;4.27;;
5117;SDS011;2578;51.622;7.046;2022-12-07T13:15:34;8.10;;;5.37;;
5117;SDS011;2578;51.622;7.046;2022-12-07T13:18:03;6.03;;;4.97;;
5117;SDS011;2578;51.622;7.046;2022-12-07T13:20:48;5.70;;;5.20;;
5117;SDS011;2578;51.622;7.046;2022-12-07T13:28:41;10.80;;;5.40;;
5117;SDS011;2578;51.622;7.046;2022-12-07T13:31:11;4.80;;;4.23;;
5117;SDS011;2578;51.622;7.046;2022-12-07T13:33:57;4.00;;;3.60;;
5117;SDS011;2578;51.622;7.046;2022-12-07T13:36:24;13.10;;;6.47;;
5117;SDS011;2578;51.622;7.046;2022-12-07T13:38:53;12.90;;;5.53;;
5117;SDS011;2578;51.622;7.046;2022-12-07T13:41:27;3.73;;;3.10;;
5117;SDS011;2578;51.622;7.046;2022-12-07T13:44:07;7.47;;;4.43;;
5117;SDS011;2578;51.622;7.046;2022-12-07T13:46:48;4.83;;;3.90;;
5117;SDS011;2578;51.622;7.046;2022-12-07T13:49:20;5.13;;;4.63;;
5117;SDS011;2578;51.622;7.046;2022-12-07T13:51:47;4.07;;;3.67;;
5117;SDS011;2578;51.622;7.046;2022-12-07T13:54:13;4.20;;;3.80;;
5117;SDS011;2578;51.622;7.046;2022-12-07T13:56:40;4.20;;;3.80;;
5117;SDS011;2578;51.622;7.046;2022-12-07T13:59:17;4.77;;;4.37;;
5117;SDS011;2578;51.622;7.046;2022-12-07T14:01:47;5.40;;;5.00;;
5117;SDS011;2578;51.622;7.046;2022-12-07T14:04:31;5.53;;;5.13;;
5117;SDS011;2578;51.622;7.046;2022-12-07T14:07:15;6.87;;;6.37;;
5117;SDS011;2578;51.622;7.046;2022-12-07T14:10:00;6.53;;;6.10;;
5117;SDS011;2578;51.622;7.046;2022-12-07T14:12:29;5.93;;;5.50;;
5117;SDS011;2578;51.622;7.046;2022-12-07T14:14:55;5.37;;;4.97;;
5117;SDS011;2578;51.622;7.046;2022-12-07T14:17:24;5.83;;;5.33;;
5117;SDS011;2578;51.622;7.046;2022-12-07T14:19:52;6.07;;;5.67;;
5117;SDS011;2578;51.622;7.046;2022-12-07T14:22:37;5.00;;;4.60;;
5117;SDS011;2578;51.622;7.046;2022-12-07T14:27:57;4.10;;;3.70;;
5117;SDS011;2578;51.622;7.046;2022-12-07T14:30:31;4.97;;;4.57;;
5117;SDS011;2578;51.622;7.046;2022-12-07T14:32:59;4.10;;;3.70;;
5117;SDS011;2578;51.622;7.046;2022-12-07T14:35:30;4.00;;;3.60;;
5117;SDS011;2578;51.622;7.046;2022-12-07T14:37:57;4.10;;;3.70;;
5117;SDS011;2578;51.622;7.046;2022-12-07T14:40:24;5.13;;;4.23;;
5117;SDS011;2578;51.622;7.046;2022-12-07T14:45:30;3.57;;;3.27;;
5117;SDS011;2578;51.622;7.046;2022-12-07T14:47:56;3.40;;;3.10;;
5117;SDS011;2578;51.622;7.046;2022-12-07T14:50:22;4.70;;;3.03;;
5117;SDS011;2578;51.622;7.046;2022-12-07T14:53:30;5.70;;;3.00;;
5117;SDS011;2578;51.622;7.046;2022-12-07T14:55:41;3.30;;;2.60;;
5117;SDS011;2578;51.622;7.046;2022-12-07T14:58:11;3.23;;;2.60;;
5117;SDS011;2578;51.622;7.046;2022-12-07T15:00:42;3.20;;;2.30;;
5117;SDS011;2578;51.622;7.046;2022-12-07T15:03:07;3.23;;;2.40;;
5117;SDS011;2578;51.622;7.046;2022-12-07T15:05:33;3.20;;;2.30;;
5117;SDS011;2578;51.622;7.046;2022-12-07T15:08:00;3.20;;;2.30;;
5117;SDS011;2578;51.622;7.046;2022-12-07T15:10:27;3.03;;;2.00;;
5117;SDS011;2578;51.622;7.046;2022-12-07T15:12:56;3.10;;;2.10;;
5117;SDS011;2578;51.622;7.046;2022-12-07T15:15:42;4.10;;;2.70;;
5117;SDS011;2578;51.622;7.046;2022-12-07T15:18:08;3.03;;;2.00;;
5117;SDS011;2578;51.622;7.046;2022-12-07T15:20:33;3.47;;;2.43;;
5117;SDS011;2578;51.622;7.046;2022-12-07T15:22:59;3.20;;;2.20;;
5117;SDS011;2578;51.622;7.046;2022-12-07T15:25:25;3.40;;;2.70;;
5117;SDS011;2578;51.622;7.046;2022-12-07T15:27:50;3.07;;;2.27;;
5117;SDS011;2578;51.622;7.046;2022-12-07T15:30:16;3.60;;;2.70;;
5117;SDS011;2578;51.622;7.046;2022-12-07T15:32:41;8.43;;;2.90;;
5117;SDS011;2578;51.622;7.046;2022-12-07T15:35:07;3.47;;;2.50;;
5117;SDS011;2578;51.622;7.046;2022-12-07T15:37:33;4.70;;;2.43;;
5117;SDS011;2578;51.622;7.046;2022-12-07T15:39:59;3.73;;;3.00;;
5117;SDS011;2578;51.622;7.046;2022-12-07T15:42:24;7.77;;;2.53;;
5117;SDS011;2578;51.622;7.046;2022-12-07T15:44:50;4.70;;;2.50;;
5117;SDS011;2578;51.622;7.046;2022-12-07T15:47:31;3.30;;;2.23;;
5117;SDS011;2578;51.622;7.046;2022-12-07T15:50:01;4.00;;;3.40;;
5117;SDS011;2578;51.622;7.046;2022-12-07T15:52:28;3.20;;;2.20;;
5117;SDS011;2578;51.622;7.046;2022-12-07T15:54:54;3.67;;;2.67;;
5117;SDS011;2578;51.622;7.046;2022-12-07T15:57:19;3.80;;;2.97;;
5117;SDS011;2578;51.622;7.046;2022-12-07T15:59:45;3.40;;;2.37;;
5117;SDS011;2578;51.622;7.046;2022-12-07T16:02:10;4.23;;;2.80;;
5117;SDS011;2578;51.622;7.046;2022-12-07T16:04:36;6.80;;;2.83;;
5117;SDS011;2578;51.622;7.046;2022-12-07T16:07:02;3.77;;;3.00;;
5117;SDS011;2578;51.622;7.046;2022-12-07T16:09:28;4.13;;;2.80;;
5117;SDS011;2578;51.622;7.046;2022-12-07T16:11:53;4.20;;;3.20;;
5117;SDS011;2578;51.622;7.046;2022-12-07T16:14:19;3.83;;;3.20;;
5117;SDS011;2578;51.622;7.046;2022-12-07T16:16:45;5.23;;;3.30;;
5117;SDS011;2578;51.622;7.046;2022-12-07T16:19:10;4.87;;;3.13;;
5117;SDS011;2578;51.622;7.046;2022-12-07T16:21:36;5.37;;;3.17;;
5117;SDS011;2578;51.622;7.046;2022-12-07T16:24:02;3.80;;;3.30;;
5117;SDS011;2578;51.622;7.046;2022-12-07T16:26:28;3.20;;;2.50;;
5117;SDS011;2578;51.622;7.046;2022-12-07T16:28:54;3.80;;;3.10;;
5117;SDS011;2578;51.622;7.046;2022-12-07T16:31:23;3.80;;;3.23;;
5117;SDS011;2578;51.622;7.046;2022-12-07T16:33:53;3.90;;;3.00;;
5117;SDS011;2578;51.622;7.046;2022-12-07T16:36:19;3.60;;;2.73;;
5117;SDS011;2578;51.622;7.046;2022-12-07T16:38:47;4.63;;;3.27;;
5117;SDS011;2578;51.622;7.046;2022-12-07T16:41:13;6.33;;;4.70;;
5117;SDS011;2578;51.622;7.046;2022-12-07T16:43:39;4.40;;;3.40;;
5117;SDS011;2578;51.622;7.046;2022-12-07T16:46:05;4.23;;;3.83;;
5117;SDS011;2578;51.622;7.046;2022-12-07T16:48:31;3.40;;;2.83;;
5117;SDS011;2578;51.622;7.046;2022-12-07T16:51:04;3.30;;;2.70;;
5117;SDS011;2578;51.622;7.046;2022-12-07T16:53:31;3.30;;;2.80;;
5117;SDS011;2578;51.622;7.046;2022-12-07T16:55:56;3.80;;;3.10;;
5117;SDS011;2578;51.622;7.046;2022-12-07T16:58:22;5.27;;;4.63;;
5117;SDS011;2578;51.622;7.046;2022-12-07T17:00:47;9.17;;;5.17;;
5117;SDS011;2578;51.622;7.046;2022-12-07T17:03:14;4.80;;;4.27;;
5117;SDS011;2578;51.622;7.046;2022-12-07T17:05:42;4.83;;;3.87;;
5117;SDS011;2578;51.622;7.046;2022-12-07T17:08:09;5.03;;;3.67;;
5117;SDS011;2578;51.622;7.046;2022-12-07T17:10:36;3.40;;;2.90;;
5117;SDS011;2578;51.622;7.046;2022-12-07T17:13:05;4.00;;;3.40;;
5117;SDS011;2578;51.622;7.046;2022-12-07T17:16:00;3.40;;;2.87;;
5117;SDS011;2578;51.622;7.046;2022-12-07T17:18:28;8.23;;;3.63;;
5117;SDS011;2578;51.622;7.046;2022-12-07T17:20:55;3.63;;;3.23;;
5117;SDS011;2578;51.622;7.046;2022-12-07T17:23:27;3.30;;;2.70;;
5117;SDS011;2578;51.622;7.046;2022-12-07T17:25:53;3.20;;;2.60;;
5117;SDS011;2578;51.622;7.046;2022-12-07T17:28:19;3.40;;;2.83;;
5117;SDS011;2578;51.622;7.046;2022-12-07T17:30:44;3.70;;;3.20;;
5117;SDS011;2578;51.622;7.046;2022-12-07T17:33:10;3.50;;;3.00;;
5117;SDS011;2578;51.622;7.046;2022-12-07T17:35:36;4.00;;;3.47;;